Silverton, CO (81433)

8:31 PM MDT on March 30, 2015 (GMT -0600)
MesoWest | | Change Station
CLOSE
Current Station
Personal Weather Station
Location: Silverton, CO
Elevation: 10500 ft
Nearby Weather Stations

Elev 10500 ft 37.75 °N, 107.69 °W | Updated 6 hours ago

Partly Cloudy
Partly Cloudy
44 °F
Feels Like 42 °F
N
5
Wind Variable Wind from ESE
Gusts mph

Today
High -- | Low -- °F
--% Chance of Precip.
Yesterday
High -- | Low -- °F
Precip. -- in
6:59 AM 7:31 PM
Waxing Gibbous, 83% visible
Pressure 30.33 in
Visibility 10.0 miles
Clouds Mostly Cloudy 11000 ft
Windchill 42 °F
Dew Point 21 °F
Humidity 40%
Rainfall in
Snow Depth Not available.
UV 0 out of 12
Pollen 11.80 out of 12
Air Quality Not available.
Flu Activity Not available.
METAR KTEX 310055Z AUTO 01003KT 10SM BKN110 11/M08 A3033 RMK AO2 T01121083

More Conditions Fewer Conditions

Pressure 30.33 in
Visibility 10.0 miles
Clouds Mostly Cloudy 11000 ft
Windchill 42 °F
Dew Point 21 °F
Humidity 40%
Rainfall in
Snow Depth Not available.
UV 0 out of 12
Pollen 11.80 out of 12
Air Quality Not available.
Flu Activity Not available.
METAR KTEX 310055Z AUTO 01003KT 10SM BKN110 11/M08 A3033 RMK AO2 T01121083

More Conditions Fewer Conditions

10-Day Weather Forecast

Almanac

Astronomy

Mar. 30, 2015 Rise Set
Actual Time
Civil Twilight
Nautical Twilight
Astronomical Twilight
Moon
Length of Visible Light
Length of Day
Tomorrow will be .
, % of the Moon is Illuminated

Today's Extremes

State Highs State Lows

Community

WunderPhotos

Upload Photos

1,809,676 photos uploaded!

WunderBlogs® & News

Nearby

Air Quality

  Air Quality AQ Index Pollutant
Not available.

Snow Depth

Station Depth Elevation

Earthquake Activity

City Distance Mag. Time & Date
Minimum magnitude displayed is 2.5.

Coastal Water Temperatures

Place Temperature

Stations

Nearby Weather Stations

Station Location Temp. Windchill Dew Point Humidity Wind Precip. Elev Updated Type